createdAt,value
2017-09-06T00:02:39.366Z,2.20
2017-09-06T00:05:40.733Z,2.03
2017-09-06T00:08:42.073Z,1.70
2017-09-06T00:11:43.372Z,1.87
2017-09-06T00:14:44.661Z,1.60
2017-09-06T00:17:46.005Z,1.87
2017-09-06T00:20:47.301Z,1.73
2017-09-06T00:23:48.605Z,1.67
2017-09-06T00:26:50.073Z,1.43
2017-09-06T00:29:51.388Z,1.60
2017-09-06T00:32:52.759Z,1.83
2017-09-06T00:35:54.121Z,1.33
2017-09-06T00:38:55.472Z,2.00
2017-09-06T00:41:56.837Z,2.10
2017-09-06T00:44:58.221Z,1.80
2017-09-06T00:47:59.541Z,1.90
2017-09-06T00:51:00.912Z,1.73
2017-09-06T00:54:02.273Z,1.43
2017-09-06T00:57:03.662Z,2.00
2017-09-06T01:00:05.025Z,1.97
2017-09-06T01:03:06.360Z,1.90
2017-09-06T01:06:07.729Z,1.93
2017-09-06T01:09:09.049Z,1.53
2017-09-06T01:12:10.405Z,1.30
2017-09-06T01:15:11.760Z,1.30
2017-09-06T01:18:13.135Z,1.83
2017-09-06T01:21:14.511Z,1.67
2017-09-06T01:24:15.901Z,1.40
2017-09-06T01:27:17.392Z,1.73
2017-09-06T01:30:18.735Z,1.40
2017-09-06T01:33:20.396Z,1.73
2017-09-06T01:36:21.751Z,2.00
2017-09-06T01:39:23.108Z,1.60
2017-09-06T01:42:24.481Z,1.40
2017-09-06T01:45:25.856Z,1.97
2017-09-06T01:48:27.181Z,1.63
2017-09-06T01:51:28.610Z,1.30
2017-09-06T01:54:30.009Z,1.80
2017-09-06T01:57:31.389Z,2.17
2017-09-06T02:00:32.776Z,2.50
2017-09-06T02:03:34.112Z,1.90
2017-09-06T02:06:35.501Z,3.00
2017-09-06T02:09:36.960Z,2.50
2017-09-06T02:12:38.276Z,2.20
2017-09-06T02:15:39.633Z,2.23
2017-09-06T02:18:40.938Z,2.03
2017-09-06T02:21:42.293Z,1.50
2017-09-06T02:24:43.604Z,2.00
2017-09-06T02:27:44.965Z,2.17
2017-09-06T02:30:46.277Z,2.33
2017-09-06T02:36:54.873Z,1.87
2017-09-06T02:39:56.210Z,1.83
2017-09-06T02:42:57.601Z,1.80
2017-09-06T02:45:58.953Z,1.67
2017-09-06T02:49:00.305Z,1.60
2017-09-06T02:52:01.657Z,2.00
2017-09-06T02:55:03.014Z,2.30
2017-09-06T02:58:05.065Z,1.57
2017-09-06T03:01:06.390Z,1.87
2017-09-06T03:04:07.713Z,2.00
2017-09-06T03:07:09.049Z,2.40
2017-09-06T03:10:10.377Z,1.87
2017-09-06T03:13:11.837Z,1.93
2017-09-06T03:16:13.118Z,1.87
2017-09-06T03:19:14.517Z,2.50
2017-09-06T03:22:15.806Z,1.80
2017-09-06T03:25:17.129Z,1.93
2017-09-06T03:28:18.444Z,1.80
2017-09-06T03:31:20.046Z,1.93
2017-09-06T03:34:21.389Z,1.73
2017-09-06T03:37:22.736Z,1.93
2017-09-06T03:40:24.041Z,2.17
2017-09-06T03:43:25.361Z,1.70
2017-09-06T03:46:26.653Z,2.23
2017-09-06T03:49:27.977Z,2.17
2017-09-06T03:52:29.304Z,2.00
2017-09-06T03:55:30.636Z,1.60
2017-09-06T03:58:31.961Z,1.97
2017-09-06T04:01:33.297Z,2.80
2017-09-06T04:04:34.693Z,2.30
2017-09-06T04:07:36.028Z,1.93
2017-09-06T04:10:37.372Z,2.23
2017-09-06T04:13:38.673Z,2.53
2017-09-06T04:16:39.977Z,2.50
2017-09-06T04:19:41.281Z,2.53
2017-09-06T04:22:42.672Z,2.77
2017-09-06T04:25:44.226Z,2.33
2017-09-06T04:28:45.552Z,2.27
2017-09-06T04:31:46.877Z,2.23
2017-09-06T04:34:48.251Z,2.23
2017-09-06T04:37:49.595Z,2.40
2017-09-06T04:40:50.870Z,2.40
2017-09-06T04:43:52.190Z,1.80
2017-09-06T04:46:53.537Z,2.10
2017-09-06T04:49:54.861Z,2.17
2017-09-06T04:52:56.177Z,2.07
2017-09-06T04:55:57.537Z,2.20
2017-09-06T04:58:58.869Z,2.37
2017-09-06T05:02:00.220Z,2.20
2017-09-06T05:05:01.518Z,3.23
2017-09-06T05:08:02.873Z,2.60
2017-09-06T05:11:04.208Z,3.67
2017-09-06T05:14:05.549Z,2.77
2017-09-06T05:17:07.269Z,2.97
2017-09-06T05:20:08.574Z,2.30
2017-09-06T05:23:09.920Z,2.60
2017-09-06T05:26:11.249Z,2.93
2017-09-06T05:29:12.577Z,2.50
2017-09-06T05:32:13.881Z,2.93
2017-09-06T05:35:15.225Z,2.30
2017-09-06T05:38:16.513Z,2.40
2017-09-06T05:41:17.858Z,2.73
2017-09-06T05:44:19.445Z,2.93
2017-09-06T05:47:20.773Z,2.90
2017-09-06T05:50:22.330Z,2.77
2017-09-06T05:53:23.648Z,2.77
2017-09-06T05:56:24.972Z,2.67
2017-09-06T05:59:26.357Z,2.73
2017-09-06T06:02:27.813Z,2.93
2017-09-06T06:05:29.117Z,2.47
2017-09-06T06:08:30.434Z,2.17
2017-09-06T06:11:31.869Z,2.10
2017-09-06T06:14:33.172Z,2.30
2017-09-06T06:17:34.705Z,2.90
2017-09-06T06:20:35.987Z,3.73
2017-09-06T06:23:37.332Z,4.43
2017-09-06T06:26:38.661Z,5.40
2017-09-06T06:29:40.005Z,4.07
2017-09-06T06:32:41.297Z,4.77
2017-09-06T06:35:42.645Z,5.27
2017-09-06T06:38:43.953Z,5.40
2017-09-06T06:41:45.292Z,5.00
2017-09-06T06:44:46.601Z,6.50
2017-09-06T06:47:47.957Z,7.63
2017-09-06T06:50:49.557Z,7.50
2017-09-06T06:53:50.869Z,7.20
2017-09-06T06:56:52.290Z,6.60
2017-09-06T06:59:53.568Z,8.30
2017-09-06T07:02:54.881Z,6.00
2017-09-06T07:05:56.177Z,6.43
2017-09-06T07:08:57.504Z,6.33
2017-09-06T07:11:58.828Z,5.20
2017-09-06T07:15:00.170Z,3.73
2017-09-06T07:18:01.455Z,3.77
2017-09-06T07:21:02.773Z,3.20
2017-09-06T07:24:04.208Z,2.80
2017-09-06T07:27:05.536Z,2.80
2017-09-06T07:30:06.888Z,2.97
2017-09-06T07:33:08.227Z,2.63
2017-09-06T07:36:09.561Z,3.10
2017-09-06T07:39:10.888Z,2.83
2017-09-06T07:42:12.244Z,3.63
2017-09-06T07:45:13.605Z,3.33
2017-09-06T07:48:14.990Z,3.50
2017-09-06T07:51:16.353Z,5.50
2017-09-06T07:54:17.656Z,4.87
2017-09-06T07:57:19.004Z,5.77
2017-09-06T08:00:20.317Z,5.40
2017-09-06T08:03:21.856Z,6.00
2017-09-06T08:06:23.205Z,7.97
2017-09-06T08:09:24.545Z,5.30
2017-09-06T08:12:25.895Z,5.10
2017-09-06T08:15:27.233Z,3.77
2017-09-06T08:18:28.565Z,2.77
2017-09-06T08:21:29.907Z,2.07
2017-09-06T08:24:31.213Z,1.67
2017-09-06T08:27:32.593Z,1.77
2017-09-06T08:30:34.213Z,1.63
2017-09-06T08:33:35.652Z,1.77
2017-09-06T08:36:37.005Z,1.73
2017-09-06T08:39:38.349Z,2.10
2017-09-06T08:42:39.676Z,3.30
2017-09-06T08:45:40.997Z,3.17
2017-09-06T08:48:42.324Z,4.70
2017-09-06T08:51:43.632Z,5.40
2017-09-06T08:54:44.975Z,5.57
2017-09-06T08:57:46.282Z,4.77
2017-09-06T09:00:47.621Z,6.10
2017-09-06T09:03:49.369Z,4.30
2017-09-06T09:06:50.696Z,4.40
2017-09-06T09:09:52.041Z,4.23
2017-09-06T09:12:53.349Z,3.40
2017-09-06T09:15:54.693Z,3.70
2017-09-06T09:18:55.993Z,5.10
2017-09-06T09:21:57.353Z,4.57
2017-09-06T09:24:58.684Z,4.83
2017-09-06T09:28:00.036Z,5.40
2017-09-06T09:31:01.341Z,6.30
2017-09-06T09:34:02.721Z,6.43
2017-09-06T09:37:04.026Z,7.57
2017-09-06T09:40:05.381Z,7.07
2017-09-06T09:43:06.848Z,7.93
2017-09-06T09:46:08.188Z,7.30
2017-09-06T09:49:09.521Z,6.43
2017-09-06T09:52:10.826Z,6.20
2017-09-06T09:55:12.264Z,6.27
2017-09-06T09:58:13.576Z,5.23
2017-09-06T10:01:14.901Z,5.03
2017-09-06T10:04:16.252Z,4.60
2017-09-06T10:07:17.600Z,4.10
2017-09-06T10:10:18.904Z,4.70
2017-09-06T10:13:20.248Z,4.03
2017-09-06T10:16:21.585Z,4.50
2017-09-06T10:19:22.928Z,4.93
2017-09-06T10:22:24.301Z,4.60
2017-09-06T10:25:25.657Z,3.40
2017-09-06T10:28:27.023Z,3.70
2017-09-06T10:31:28.328Z,4.50
2017-09-06T10:34:29.708Z,3.93
2017-09-06T10:37:31.025Z,3.90
2017-09-06T10:40:32.352Z,3.53
2017-09-06T10:43:33.668Z,4.17
2017-09-06T10:46:35.062Z,3.27
2017-09-06T10:49:36.341Z,3.90
2017-09-06T10:52:37.674Z,3.87
2017-09-06T10:55:39.029Z,3.80
2017-09-06T10:58:40.317Z,4.87
2017-09-06T11:01:41.629Z,3.87
2017-09-06T11:04:42.957Z,3.27
2017-09-06T11:07:44.349Z,3.63
2017-09-06T11:10:45.690Z,3.00
2017-09-06T11:13:47.008Z,2.47
2017-09-06T11:16:48.327Z,2.40
2017-09-06T11:19:49.642Z,2.63
2017-09-06T11:22:50.946Z,3.33
2017-09-06T11:25:52.293Z,3.43
2017-09-06T11:28:53.603Z,3.13
2017-09-06T11:31:54.978Z,4.17
2017-09-06T11:34:56.400Z,3.60
2017-09-06T11:37:57.698Z,3.47
2017-09-06T11:40:59.044Z,3.90
2017-09-06T11:44:00.352Z,3.33
2017-09-06T11:47:01.797Z,3.70
2017-09-06T11:50:03.105Z,4.40
2017-09-06T11:53:04.441Z,2.97
2017-09-06T11:56:05.765Z,3.27
2017-09-06T11:59:07.105Z,2.83
2017-09-06T12:02:08.415Z,2.13
2017-09-06T12:05:09.764Z,2.73
2017-09-06T12:08:11.066Z,3.10
2017-09-06T12:11:12.449Z,3.03
2017-09-06T12:14:13.737Z,3.30
2017-09-06T12:17:15.089Z,2.63
2017-09-06T12:20:16.541Z,2.10
2017-09-06T12:23:17.853Z,3.03
2017-09-06T12:26:19.309Z,3.50
2017-09-06T12:29:20.619Z,2.77
2017-09-06T12:32:21.941Z,3.20
2017-09-06T12:35:23.277Z,3.23
2017-09-06T12:38:24.649Z,2.63
2017-09-06T12:41:25.973Z,3.20
2017-09-06T12:44:27.310Z,3.23
2017-09-06T12:47:28.652Z,3.20
2017-09-06T12:50:29.946Z,4.03
2017-09-06T12:53:31.668Z,3.53
2017-09-06T12:56:32.962Z,3.60
2017-09-06T12:59:34.326Z,3.87
2017-09-06T13:02:35.660Z,2.83
2017-09-06T13:05:36.994Z,3.50
2017-09-06T13:08:38.325Z,3.53
2017-09-06T13:11:39.688Z,3.40
2017-09-06T13:14:41.037Z,3.13
2017-09-06T13:17:42.341Z,2.90
2017-09-06T13:20:44.121Z,3.83
2017-09-06T13:23:45.492Z,4.13
2017-09-06T13:26:46.854Z,3.40
2017-09-06T13:29:48.197Z,3.90
2017-09-06T13:32:49.560Z,3.13
2017-09-06T13:35:50.878Z,3.07
2017-09-06T13:38:52.213Z,3.80
2017-09-06T13:41:53.576Z,3.67
2017-09-06T13:44:54.849Z,3.57
2017-09-06T13:47:56.545Z,4.03
2017-09-06T13:50:57.880Z,4.00
2017-09-06T13:53:59.221Z,3.40
2017-09-06T13:57:00.529Z,3.20
2017-09-06T14:00:01.893Z,3.80
2017-09-06T14:03:03.170Z,3.40
2017-09-06T14:06:04.548Z,3.23
2017-09-06T14:09:05.893Z,3.10
2017-09-06T14:12:07.232Z,3.70
2017-09-06T14:15:08.537Z,3.47
2017-09-06T14:18:09.893Z,3.00
2017-09-06T14:21:11.174Z,3.70
2017-09-06T14:24:12.513Z,3.30
2017-09-06T14:27:13.957Z,3.90
2017-09-06T14:30:15.296Z,3.30
2017-09-06T14:33:16.629Z,3.57
2017-09-06T14:36:17.974Z,3.63
2017-09-06T14:39:19.350Z,4.20
2017-09-06T14:42:20.677Z,3.50
2017-09-06T14:45:22.055Z,3.60
2017-09-06T14:48:23.365Z,4.50
2017-09-06T14:51:24.730Z,5.10
2017-09-06T14:54:26.098Z,3.57
2017-09-06T14:57:27.471Z,4.00
2017-09-06T15:00:28.811Z,5.47
2017-09-06T15:03:30.160Z,3.90
2017-09-06T15:06:31.760Z,4.40
2017-09-06T15:09:33.094Z,4.00
2017-09-06T15:12:34.468Z,4.57
2017-09-06T15:15:35.785Z,4.53
2017-09-06T15:18:37.129Z,4.77
2017-09-06T15:21:38.466Z,4.80
2017-09-06T15:24:39.826Z,5.17
2017-09-06T15:27:41.189Z,4.50
2017-09-06T15:30:42.570Z,4.90
2017-09-06T15:33:43.929Z,5.00
2017-09-06T15:36:45.383Z,4.90
2017-09-06T15:39:46.876Z,5.77
2017-09-06T15:42:48.245Z,5.40
2017-09-06T15:45:49.706Z,5.60
2017-09-06T15:48:51.056Z,4.87
2017-09-06T15:51:52.527Z,4.90
2017-09-06T15:54:53.900Z,4.70
2017-09-06T15:57:55.417Z,6.40
2017-09-06T16:00:56.713Z,4.60
2017-09-06T16:03:58.452Z,4.37
2017-09-06T16:07:06.824Z,4.17
2017-09-06T16:10:08.201Z,4.37
2017-09-06T16:13:09.578Z,4.73
2017-09-06T16:16:10.965Z,4.10
2017-09-06T16:19:12.296Z,4.37
2017-09-06T16:22:13.704Z,3.93
2017-09-06T16:25:15.152Z,4.70
2017-09-06T16:28:16.501Z,4.97
2017-09-06T16:31:17.900Z,4.97
2017-09-06T16:34:19.228Z,4.60
2017-09-06T16:37:20.653Z,4.73
2017-09-06T16:40:21.981Z,5.60
2017-09-06T16:43:23.378Z,4.33
2017-09-06T16:46:25.034Z,5.33
2017-09-06T16:49:26.382Z,5.77
2017-09-06T16:52:27.725Z,4.77
2017-09-06T16:55:29.047Z,5.00
2017-09-06T16:58:30.404Z,4.90
2017-09-06T17:01:31.729Z,4.63
2017-09-06T17:04:33.078Z,4.87
2017-09-06T17:07:34.378Z,5.63
2017-09-06T17:10:35.789Z,5.07
2017-09-06T17:13:37.124Z,4.93
2017-09-06T17:16:38.499Z,5.10
2017-09-06T17:19:39.851Z,5.37
2017-09-06T17:22:41.197Z,4.37
2017-09-06T17:25:42.844Z,5.13
2017-09-06T17:28:44.173Z,5.60
2017-09-06T17:31:45.554Z,4.57
2017-09-06T17:34:46.890Z,3.63
2017-09-06T17:37:48.295Z,3.90
2017-09-06T17:40:49.651Z,4.77
2017-09-06T17:43:51.017Z,4.23
2017-09-06T17:46:52.357Z,5.40
2017-09-06T17:49:53.714Z,4.30
2017-09-06T17:52:55.080Z,4.53
2017-09-06T17:55:56.429Z,4.07
2017-09-06T17:58:58.518Z,4.00
2017-09-06T18:01:59.889Z,4.77
2017-09-06T18:05:01.249Z,4.80
2017-09-06T18:08:02.599Z,3.67
2017-09-06T18:11:03.969Z,5.43
2017-09-06T18:14:05.341Z,3.80
2017-09-06T18:17:06.972Z,4.20
2017-09-06T18:20:08.298Z,4.80
2017-09-06T18:23:09.677Z,4.03
2017-09-06T18:26:11.044Z,4.40
2017-09-06T18:29:12.426Z,4.77
2017-09-06T18:32:13.788Z,5.17
2017-09-06T18:35:15.213Z,4.07
2017-09-06T18:38:16.566Z,5.10
2017-09-06T18:41:17.925Z,4.40
2017-09-06T18:44:19.408Z,3.83
2017-09-06T18:47:20.740Z,4.93
2017-09-06T18:50:22.104Z,4.80
2017-09-06T18:53:23.455Z,4.30
2017-09-06T18:56:24.818Z,4.57
2017-09-06T18:59:26.153Z,5.13
2017-09-06T19:02:27.523Z,4.73
2017-09-06T19:05:29.000Z,4.83
2017-09-06T19:08:30.346Z,4.73
2017-09-06T19:11:31.710Z,4.93
2017-09-06T19:14:33.076Z,4.67
2017-09-06T19:17:34.456Z,5.03
2017-09-06T19:20:35.789Z,4.20
2017-09-06T19:23:37.161Z,4.60
2017-09-06T19:26:38.594Z,4.23
2017-09-06T19:29:40.001Z,5.33
2017-09-06T19:32:41.332Z,4.90
2017-09-06T19:35:42.718Z,5.73
2017-09-06T19:38:44.090Z,5.80
2017-09-06T19:41:45.499Z,5.73
2017-09-06T19:44:46.805Z,5.00
2017-09-06T19:47:48.202Z,4.93
2017-09-06T19:50:49.535Z,5.67
2017-09-06T19:53:50.952Z,5.23
2017-09-06T19:56:52.534Z,4.97
2017-09-06T19:59:53.869Z,5.73
2017-09-06T20:02:55.221Z,5.80
2017-09-06T20:05:56.551Z,6.00
2017-09-06T20:08:57.882Z,6.43
2017-09-06T20:11:59.167Z,6.40
2017-09-06T20:15:00.510Z,5.93
2017-09-06T20:18:01.853Z,5.63
2017-09-06T20:21:03.178Z,5.40
2017-09-06T20:24:04.869Z,6.13
2017-09-06T20:27:06.154Z,8.20
2017-09-06T20:30:07.506Z,6.30
2017-09-06T20:33:08.836Z,5.40
2017-09-06T20:36:10.190Z,4.40
2017-09-06T20:39:11.521Z,4.63
2017-09-06T20:42:12.854Z,4.83
2017-09-06T20:45:14.169Z,4.07
2017-09-06T20:48:22.482Z,4.83
2017-09-06T20:51:23.793Z,5.33
2017-09-06T20:54:25.129Z,4.17
2017-09-06T20:57:26.440Z,4.13
2017-09-06T21:00:27.791Z,3.70
2017-09-06T21:03:29.128Z,5.50
2017-09-06T21:06:30.506Z,5.60
2017-09-06T21:09:31.834Z,3.83
2017-09-06T21:12:33.177Z,5.23
2017-09-06T21:15:34.465Z,4.20
2017-09-06T21:18:35.817Z,6.13
2017-09-06T21:21:37.145Z,5.10
2017-09-06T21:24:38.482Z,5.50
2017-09-06T21:27:39.869Z,4.73
2017-09-06T21:30:41.405Z,5.03
2017-09-06T21:33:42.729Z,5.63
2017-09-06T21:36:44.085Z,6.27
2017-09-06T21:39:45.378Z,5.10
2017-09-06T21:42:46.761Z,6.83
2017-09-06T21:45:48.080Z,6.00
2017-09-06T21:48:49.404Z,5.43
2017-09-06T21:51:50.712Z,5.20
2017-09-06T21:54:52.052Z,5.33
2017-09-06T21:57:53.401Z,5.40
2017-09-06T22:00:54.762Z,6.03
2017-09-06T22:03:56.172Z,5.57
2017-09-06T22:06:57.479Z,4.67
2017-09-06T22:09:59.145Z,5.23
2017-09-06T22:13:00.475Z,5.10
2017-09-06T22:16:01.840Z,5.00
2017-09-06T22:19:03.128Z,5.73
2017-09-06T22:22:04.442Z,4.40
2017-09-06T22:25:05.758Z,4.50
2017-09-06T22:28:07.125Z,5.77
2017-09-06T22:31:38.557Z,5.67
2017-09-06T22:34:39.917Z,5.17
2017-09-06T22:37:41.394Z,6.70
2017-09-06T22:40:43.488Z,4.43
2017-09-06T22:43:44.909Z,5.90
2017-09-06T22:46:46.962Z,5.40
2017-09-06T22:49:48.269Z,5.57
2017-09-06T22:52:49.570Z,5.87
2017-09-06T22:55:58.738Z,5.13
2017-09-06T22:59:00.048Z,5.50
2017-09-06T23:02:02.117Z,6.00
2017-09-06T23:05:04.239Z,4.87
2017-09-06T23:08:05.584Z,5.87
2017-09-06T23:11:06.903Z,6.17
2017-09-06T23:14:08.245Z,6.27
2017-09-06T23:17:10.426Z,7.43
2017-09-06T23:20:11.721Z,8.07
2017-09-06T23:23:19.984Z,6.10
2017-09-06T23:26:21.316Z,5.20
2017-09-06T23:29:23.400Z,6.20
2017-09-06T23:32:24.721Z,5.70
2017-09-06T23:35:26.057Z,4.80
2017-09-06T23:38:27.393Z,5.90
2017-09-06T23:41:28.736Z,6.00
2017-09-06T23:44:30.061Z,5.87
2017-09-06T23:47:31.399Z,5.27
2017-09-06T23:50:32.749Z,5.70
2017-09-06T23:53:34.069Z,4.77
2017-09-06T23:56:35.385Z,5.80
2017-09-06T23:59:36.672Z,6.10
